Time;durP1;ratioP1;P1;durP2;ratioP2;P2;SDS_P1;SDS_P2;PMS_P1;PMS_P2;Temp;Humidity;BMP_temperature;BMP_pressure;BME280_temperature;BME280_humidity;BME280_pressure;Samples;Min_cycle;Max_cycle;Signal;HPM_P1;HPM_P2
2022/12/25 00:00:08;;;;;;;19.03;17.53;;;6.10;99.90;;;;;;5102884;28;20243;-49
2022/12/25 00:02:34;;;;;;;18.98;17.48;;;6.00;99.90;;;;;;5100137;28;20804;-51
2022/12/25 00:05:00;;;;;;;20.27;18.07;;;6.00;99.90;;;;;;5100883;28;20201;-52
2022/12/25 00:07:25;;;;;;;20.60;18.80;;;6.00;99.90;;;;;;5102603;28;20544;-50
2022/12/25 00:09:51;;;;;;;21.67;19.70;;;5.90;99.90;;;;;;5101098;28;20272;-49
2022/12/25 00:12:18;;;;;;;20.67;18.87;;;5.90;99.90;;;;;;5102259;28;20180;-51
2022/12/25 00:14:43;;;;;;;20.15;18.45;;;5.90;99.90;;;;;;5101468;28;20170;-52
2022/12/25 00:17:09;;;;;;;22.83;20.80;;;5.90;99.90;;;;;;5102181;28;20243;-49
2022/12/25 00:19:35;;;;;;;22.37;20.10;;;5.90;99.90;;;;;;5100670;28;20215;-51
2022/12/25 00:22:01;;;;;;;21.70;19.40;;;5.80;99.90;;;;;;5101422;28;20189;-52
2022/12/25 00:24:26;;;;;;;22.00;20.03;;;5.80;99.90;;;;;;5101096;28;20226;-53
2022/12/25 00:26:52;;;;;;;21.23;19.33;;;5.80;99.90;;;;;;5101744;28;20185;-54
2022/12/25 00:29:17;;;;;;;21.47;19.57;;;5.80;99.90;;;;;;5100794;28;20209;-48
2022/12/25 00:31:43;;;;;;;21.37;19.57;;;5.80;99.90;;;;;;5101925;28;20194;-51
2022/12/25 00:34:08;;;;;;;20.90;18.87;;;5.70;99.90;;;;;;5101169;28;20517;-53
2022/12/25 00:36:34;;;;;;;19.67;18.00;;;5.60;99.90;;;;;;5100951;28;20198;-51
2022/12/25 00:39:00;;;;;;;19.47;17.70;;;5.60;99.90;;;;;;5101313;28;20538;-52
2022/12/25 00:44:12;;;;;;;20.52;18.55;;;5.50;99.90;;;;;;5101980;28;20188;-49
2022/12/25 00:46:38;;;;;;;20.10;18.20;;;5.50;99.90;;;;;;5099857;28;20180;-53
2022/12/25 00:49:05;;;;;;;19.45;17.90;;;5.50;99.90;;;;;;5101333;28;20212;-52
2022/12/25 00:51:31;;;;;;;20.52;18.45;;;5.40;99.90;;;;;;5101313;28;20176;-53
2022/12/25 00:53:56;;;;;;;19.30;17.70;;;5.30;99.90;;;;;;5101815;28;20195;-51
2022/12/25 00:56:22;;;;;;;19.90;18.17;;;5.30;99.90;;;;;;5101202;28;21074;-50
2022/12/25 00:58:47;;;;;;;18.30;16.90;;;5.30;99.90;;;;;;5101027;28;20188;-47
2022/12/25 01:01:13;;;;;;;19.10;17.60;;;5.30;99.90;;;;;;5098984;28;20689;-54
2022/12/25 01:03:39;;;;;;;18.93;17.33;;;5.30;99.90;;;;;;5099520;28;20225;-50
2022/12/25 01:06:06;;;;;;;18.47;16.97;;;5.30;99.90;;;;;;5099286;28;20682;-51
2022/12/25 01:08:34;;;;;;;19.02;17.17;;;5.30;99.90;;;;;;5099866;28;20203;-51
2022/12/25 01:11:04;;;;;;;18.90;17.50;;;5.20;99.90;;;;;;5100118;28;20243;-51
2022/12/25 01:13:33;;;;;;;18.48;17.05;;;5.20;99.90;;;;;;5100319;28;20181;-51
2022/12/25 01:16:04;;;;;;;19.15;17.65;;;5.20;99.90;;;;;;5098262;28;20235;-53
2022/12/25 01:18:29;;;;;;;19.42;17.55;;;5.10;99.90;;;;;;5098971;28;20686;-51
2022/12/25 01:20:55;;;;;;;19.60;17.77;;;5.00;99.90;;;;;;5098782;28;20213;-49
2022/12/25 01:23:20;;;;;;;19.03;17.50;;;5.00;99.90;;;;;;5099755;28;20188;-51
2022/12/25 01:25:46;;;;;;;19.20;17.53;;;4.90;99.90;;;;;;5097975;28;20239;-54
2022/12/25 01:28:12;;;;;;;19.90;18.20;;;4.90;99.90;;;;;;5098499;28;20497;-52
2022/12/25 01:30:38;;;;;;;19.60;18.00;;;4.80;99.90;;;;;;5099667;28;20195;-50
2022/12/25 01:33:03;;;;;;;20.02;18.35;;;4.80;99.90;;;;;;5098876;28;20645;-57
2022/12/25 01:35:29;;;;;;;21.50;19.30;;;4.70;99.90;;;;;;5099315;28;20194;-51
2022/12/25 01:37:55;;;;;;;21.70;19.70;;;4.60;99.90;;;;;;5100004;28;20679;-49
2022/12/25 01:40:20;;;;;;;20.70;19.00;;;4.70;99.90;;;;;;5097794;28;20191;-54
2022/12/25 01:42:46;;;;;;;22.00;19.73;;;4.70;99.90;;;;;;5099203;28;20211;-55
2022/12/25 01:45:35;;;;;;;21.63;19.83;;;4.60;99.90;;;;;;5099489;28;20282;-48
2022/12/25 01:48:05;;;;;;;22.48;20.27;;;4.60;99.90;;;;;;5096484;28;20184;-52
2022/12/25 01:50:32;;;;;;;21.33;19.52;;;4.50;99.90;;;;;;5099221;28;20721;-50
2022/12/25 01:52:57;;;;;;;21.27;19.58;;;4.50;99.90;;;;;;5099465;28;20202;-50
2022/12/25 01:55:24;;;;;;;21.67;19.80;;;4.40;99.90;;;;;;5099494;28;20188;-50
2022/12/25 01:57:50;;;;;;;21.35;19.63;;;4.40;99.90;;;;;;5100335;28;20474;-52
2022/12/25 02:00:15;;;;;;;22.20;20.20;;;4.30;99.90;;;;;;5099205;28;20179;-49
2022/12/25 02:02:43;;;;;;;21.07;19.27;;;4.20;99.90;;;;;;5098646;28;20262;-49
2022/12/25 02:05:28;;;;;;;21.25;19.45;;;4.20;99.90;;;;;;5098972;28;20614;-54
2022/12/25 02:07:56;;;;;;;20.75;19.05;;;4.10;99.90;;;;;;5099495;28;20657;-50
2022/12/25 02:10:22;;;;;;;21.65;19.67;;;4.10;99.90;;;;;;5099256;28;20597;-49
2022/12/25 02:12:48;;;;;;;20.53;18.83;;;4.10;99.90;;;;;;5098434;28;20188;-48
2022/12/25 02:15:17;;;;;;;21.20;19.17;;;4.00;99.90;;;;;;5098176;28;20673;-50
2022/12/25 02:17:54;;;;;;;21.48;19.58;;;3.90;99.90;;;;;;5098133;28;20429;-49
2022/12/25 02:20:27;;;;;;;20.50;18.67;;;3.90;99.90;;;;;;5097309;28;20653;-48
2022/12/25 02:23:02;;;;;;;20.52;18.95;;;3.90;99.90;;;;;;5098918;28;21043;-51
2022/12/25 02:25:46;;;;;;;20.40;18.70;;;3.90;99.90;;;;;;5099263;28;20206;-48
2022/12/25 02:28:38;;;;;;;20.98;19.17;;;3.90;99.90;;;;;;5096594;28;20900;-47
2022/12/25 02:31:31;;;;;;;20.75;18.95;;;3.90;99.90;;;;;;5097811;28;20275;-51
2022/12/25 02:34:18;;;;;;;20.77;18.95;;;3.90;99.90;;;;;;5059272;28;20200;-49
2022/12/25 02:36:49;;;;;;;21.33;19.48;;;3.90;99.90;;;;;;5099593;28;20172;-48
2022/12/25 02:39:56;;;;;;;20.10;18.38;;;3.80;99.90;;;;;;5098130;28;20271;-51
2022/12/25 03:08:07;;;;;;;20.77;19.20;;;4.00;99.90;;;;;;5103327;28;20186;-50
2022/12/25 03:13:24;;;;;;;18.50;17.13;;;3.90;99.90;;;;;;5103193;28;20187;-44
2022/12/25 03:18:35;;;;;;;20.38;18.60;;;3.80;99.90;;;;;;5102995;28;20577;-52
2022/12/25 03:32:47;;;;;;;19.35;17.95;;;3.70;99.90;;;;;;5103264;28;20723;-50
2022/12/25 03:35:31;;;;;;;20.30;18.55;;;3.70;99.90;;;;;;5098366;28;20195;-53
2022/12/25 04:36:48;;;;;;;19.92;18.33;;;3.50;99.90;;;;;;5100393;28;20542;-53
2022/12/25 04:39:14;;;;;;;19.90;18.17;;;3.50;99.90;;;;;;5101168;28;20187;-51
2022/12/25 04:41:39;;;;;;;20.90;19.03;;;3.50;99.90;;;;;;5100697;28;20251;-50
2022/12/25 04:44:05;;;;;;;21.53;19.43;;;3.40;99.90;;;;;;5100171;28;20273;-50
2022/12/25 04:46:30;;;;;;;21.60;19.50;;;3.40;99.90;;;;;;5100767;28;20188;-53
2022/12/25 04:48:56;;;;;;;21.13;19.50;;;3.40;99.90;;;;;;5100746;28;20558;-45
2022/12/25 04:51:24;;;;;;;20.97;19.27;;;3.40;99.90;;;;;;5100089;28;20211;-53
2022/12/25 04:53:51;;;;;;;20.77;19.08;;;3.30;99.90;;;;;;5100667;28;20218;-49
2022/12/25 04:56:17;;;;;;;20.23;18.42;;;3.30;99.90;;;;;;5099974;28;20437;-49
2022/12/25 04:58:43;;;;;;;21.42;19.35;;;3.30;99.90;;;;;;5101472;28;20180;-48
2022/12/25 05:01:09;;;;;;;21.80;19.70;;;3.20;99.90;;;;;;5098841;28;20179;-51
2022/12/25 05:03:35;;;;;;;21.00;19.20;;;3.20;99.90;;;;;;5100714;28;20541;-57
2022/12/25 05:06:02;;;;;;;20.00;18.30;;;3.20;99.90;;;;;;5099838;28;20461;-51
2022/12/25 05:08:29;;;;;;;21.00;19.20;;;3.10;99.90;;;;;;5100709;28;20425;-51
2022/12/25 05:10:55;;;;;;;20.88;18.67;;;3.10;99.90;;;;;;5097979;28;20217;-51
2022/12/25 05:13:21;;;;;;;20.33;18.57;;;3.10;99.90;;;;;;5099998;28;20191;-52
2022/12/25 05:15:46;;;;;;;20.23;18.63;;;3.10;99.90;;;;;;5098469;28;20226;-45
2022/12/25 05:18:12;;;;;;;19.60;18.20;;;3.10;99.90;;;;;;5097967;28;20195;-53
2022/12/25 05:20:37;;;;;;;20.23;18.40;;;3.00;99.90;;;;;;5100131;28;20198;-55
2022/12/25 05:23:03;;;;;;;20.67;18.67;;;3.00;99.90;;;;;;5098419;28;20253;-49
2022/12/25 05:25:29;;;;;;;21.00;18.90;;;3.00;99.90;;;;;;5099543;28;20206;-54
2022/12/25 05:27:54;;;;;;;20.30;18.77;;;2.90;99.90;;;;;;5099829;28;20235;-51
2022/12/25 05:30:20;;;;;;;20.60;18.80;;;2.90;99.90;;;;;;5099153;28;20466;-50
2022/12/25 05:32:47;;;;;;;21.47;19.60;;;2.90;99.90;;;;;;5099608;28;20544;-51
2022/12/25 05:35:13;;;;;;;22.02;20.08;;;2.80;99.90;;;;;;5099988;28;20183;-53
2022/12/25 05:37:38;;;;;;;21.27;19.47;;;2.80;99.90;;;;;;5099544;28;20183;-51
2022/12/25 05:40:04;;;;;;;20.47;18.83;;;2.80;99.90;;;;;;5098089;28;20510;-54
2022/12/25 05:42:30;;;;;;;21.50;19.55;;;2.80;99.90;;;;;;5098919;28;20197;-51
2022/12/25 05:44:56;;;;;;;21.40;19.37;;;2.80;99.90;;;;;;5099635;28;20186;-50
2022/12/25 05:47:21;;;;;;;22.47;20.10;;;2.80;99.90;;;;;;5098488;28;20563;-50
2022/12/25 05:49:47;;;;;;;22.20;20.23;;;2.80;99.90;;;;;;5099968;28;20223;-49
2022/12/25 05:52:12;;;;;;;20.90;19.10;;;2.70;99.90;;;;;;5098994;28;20273;-49
2022/12/25 05:54:38;;;;;;;21.83;19.80;;;2.70;99.90;;;;;;5100355;28;20183;-49
2022/12/25 05:57:04;;;;;;;20.17;18.37;;;2.60;99.90;;;;;;5097608;28;20195;-49
2022/12/25 05:59:31;;;;;;;20.53;18.87;;;2.60;99.90;;;;;;5098286;28;20541;-49
2022/12/25 06:01:57;;;;;;;21.95;19.80;;;2.60;99.90;;;;;;5097474;28;20441;-48
2022/12/25 06:04:23;;;;;;;21.07;19.47;;;2.60;99.90;;;;;;5096625;28;20194;-48
2022/12/25 06:06:48;;;;;;;20.63;18.50;;;2.50;99.90;;;;;;5100622;28;20319;-51
2022/12/25 06:09:14;;;;;;;21.03;18.97;;;2.50;99.90;;;;;;5099414;28;20479;-49
2022/12/25 06:11:40;;;;;;;21.00;18.87;;;2.50;99.90;;;;;;5097811;27;20179;-49
2022/12/25 06:14:06;;;;;;;20.90;19.10;;;2.50;99.90;;;;;;5098769;28;20187;-51
2022/12/25 06:16:32;;;;;;;21.57;19.87;;;2.50;99.90;;;;;;5096928;28;20270;-47
2022/12/25 06:18:57;;;;;;;21.07;19.27;;;2.50;99.90;;;;;;5098908;28;20182;-51
2022/12/25 06:21:23;;;;;;;21.07;19.37;;;2.50;99.90;;;;;;5099113;28;20193;-51
2022/12/25 06:23:49;;;;;;;22.57;20.37;;;2.50;99.90;;;;;;5099216;28;20210;-53
2022/12/25 06:26:17;;;;;;;21.70;19.60;;;2.50;99.90;;;;;;5097810;28;20211;-48
2022/12/25 06:28:43;;;;;;;22.42;20.05;;;2.40;99.90;;;;;;5097620;28;20187;-50
2022/12/25 06:31:14;;;;;;;21.42;19.73;;;2.40;99.90;;;;;;5098829;28;20272;-48
2022/12/25 06:33:40;;;;;;;22.70;20.58;;;2.40;99.90;;;;;;5100588;28;20645;-50
2022/12/25 06:36:12;;;;;;;23.15;20.83;;;2.30;99.90;;;;;;5103220;28;20599;-50
2022/12/25 06:38:37;;;;;;;22.15;20.15;;;2.30;99.90;;;;;;5103055;28;20183;-52
2022/12/25 06:41:12;;;;;;;23.23;20.90;;;2.20;99.90;;;;;;5102541;28;20201;-47
2022/12/25 06:43:38;;;;;;;24.80;22.20;;;2.20;99.90;;;;;;5103122;28;20183;-49
2022/12/25 06:46:07;;;;;;;26.27;22.37;;;2.20;99.90;;;;;;5102677;28;20748;-50
2022/12/25 06:48:33;;;;;;;24.45;21.90;;;2.20;99.90;;;;;;5102249;27;20500;-46
2022/12/25 06:51:00;;;;;;;25.30;22.70;;;2.20;99.90;;;;;;5102740;27;20215;-51
2022/12/25 06:53:26;;;;;;;24.55;22.35;;;2.20;99.90;;;;;;5100958;28;20524;-52
2022/12/25 06:55:51;;;;;;;25.00;22.53;;;2.20;99.90;;;;;;5084916;28;20189;-48
2022/12/25 06:58:17;;;;;;;26.20;23.80;;;2.20;99.90;;;;;;5099989;28;20667;-49
2022/12/25 07:00:42;;;;;;;26.20;23.53;;;2.20;99.90;;;;;;5101425;28;20183;-48
2022/12/25 07:03:10;;;;;;;24.93;22.60;;;2.20;99.90;;;;;;5101362;27;20187;-50
2022/12/25 07:05:35;;;;;;;25.65;23.25;;;2.20;99.90;;;;;;5102101;28;20243;-50
2022/12/25 07:08:01;;;;;;;27.03;24.63;;;2.20;99.90;;;;;;5102375;28;20653;-50
2022/12/25 07:10:27;;;;;;;26.47;23.87;;;2.20;99.90;;;;;;5084594;28;20635;-48
2022/12/25 07:12:52;;;;;;;26.30;23.80;;;2.20;99.90;;;;;;5103063;28;20529;-48
2022/12/25 07:15:18;;;;;;;26.97;24.37;;;2.20;99.90;;;;;;5102729;28;20216;-52
2022/12/25 07:17:43;;;;;;;25.60;23.07;;;2.20;99.90;;;;;;5101510;28;21018;-49
2022/12/25 07:20:09;;;;;;;25.57;22.90;;;2.20;99.90;;;;;;5102968;27;20191;-51
2022/12/25 07:22:35;;;;;;;25.40;22.70;;;2.20;99.90;;;;;;5101944;28;20191;-47
2022/12/25 07:25:00;;;;;;;24.83;22.50;;;2.20;99.90;;;;;;5102417;28;20241;-53
2022/12/25 07:27:26;;;;;;;27.43;24.50;;;2.30;99.90;;;;;;5099896;28;20268;-50
2022/12/25 07:29:51;;;;;;;27.40;24.57;;;2.30;99.90;;;;;;5077666;28;20202;-52
2022/12/25 07:32:17;;;;;;;26.63;23.97;;;2.30;99.90;;;;;;5096871;28;20191;-48
2022/12/25 07:34:43;;;;;;;27.00;24.20;;;2.40;99.90;;;;;;5101589;28;20187;-51
2022/12/25 07:37:08;;;;;;;25.53;22.80;;;2.40;99.90;;;;;;5097713;28;20180;-54
2022/12/25 07:39:34;;;;;;;28.60;23.60;;;2.40;99.90;;;;;;5099428;28;20198;-45
2022/12/25 07:42:00;;;;;;;27.03;24.33;;;2.40;99.90;;;;;;5102729;28;20743;-49
2022/12/25 07:44:25;;;;;;;27.40;24.53;;;2.50;99.90;;;;;;5101065;28;20541;-51
2022/12/25 07:46:51;;;;;;;28.90;26.03;;;2.60;99.90;;;;;;5101091;28;20821;-52
2022/12/25 07:49:16;;;;;;;28.67;25.77;;;2.70;99.90;;;;;;5082995;28;20206;-49
2022/12/25 07:51:42;;;;;;;28.47;25.50;;;2.70;99.90;;;;;;5100683;28;20360;-51
2022/12/25 07:54:08;;;;;;;28.70;25.47;;;2.80;99.90;;;;;;5101911;28;20187;-50
2022/12/25 07:56:33;;;;;;;27.00;24.50;;;2.80;99.90;;;;;;5100781;27;20544;-46
2022/12/25 07:58:59;;;;;;;29.57;26.37;;;2.90;99.90;;;;;;5098333;28;20274;-48
2022/12/25 08:01:26;;;;;;;29.57;26.67;;;2.80;99.90;;;;;;5100918;27;20179;-50
2022/12/25 08:03:57;;;;;;;26.98;24.30;;;2.80;99.90;;;;;;5101303;28;20202;-50
2022/12/25 08:06:28;;;;;;;27.63;24.63;;;2.90;99.90;;;;;;5100980;28;20863;-49
2022/12/25 08:09:01;;;;;;;28.92;25.85;;;3.00;99.90;;;;;;5100679;28;20203;-49
2022/12/25 08:11:26;;;;;;;28.30;25.00;;;3.10;99.90;;;;;;5100065;28;20548;-49
2022/12/25 08:13:52;;;;;;;30.57;26.40;;;3.30;99.90;;;;;;5100952;28;20184;-50
2022/12/25 08:16:17;;;;;;;28.83;25.87;;;3.60;99.90;;;;;;5099840;28;20843;-49
2022/12/25 08:18:43;;;;;;;28.40;25.80;;;3.90;99.90;;;;;;5099548;27;20457;-52
2022/12/25 08:21:11;;;;;;;29.47;26.67;;;4.20;99.90;;;;;;5100652;28;20188;-51
2022/12/25 08:23:40;;;;;;;27.25;24.75;;;4.70;99.90;;;;;;5100110;28;20290;-55
2022/12/25 08:26:08;;;;;;;25.80;23.60;;;5.10;99.90;;;;;;5098769;28;20279;-51
2022/12/25 08:28:34;;;;;;;26.70;24.23;;;5.20;99.90;;;;;;5100473;28;20180;-50
2022/12/25 08:31:13;;;;;;;25.63;23.42;;;5.20;99.90;;;;;;5097984;28;20238;-52
2022/12/25 08:33:39;;;;;;;28.95;26.30;;;5.20;99.90;;;;;;5081063;28;20257;-52
2022/12/25 08:36:07;;;;;;;25.20;22.70;;;5.30;99.90;;;;;;5099195;28;20184;-53
2022/12/25 08:38:32;;;;;;;24.77;22.58;;;5.40;99.90;;;;;;5101168;28;20173;-53
2022/12/25 08:40:58;;;;;;;24.57;22.30;;;5.50;99.90;;;;;;5098875;28;20336;-52
2022/12/25 08:43:24;;;;;;;25.40;23.00;;;5.60;99.90;;;;;;5101921;28;21020;-54
2022/12/25 08:45:49;;;;;;;24.43;22.10;;;5.70;99.90;;;;;;5101430;28;20588;-54
2022/12/25 08:48:15;;;;;;;24.20;21.77;;;5.90;99.90;;;;;;5098461;28;20190;-53
2022/12/25 08:50:49;;;;;;;22.20;20.10;;;6.20;99.90;;;;;;5100675;28;20205;-53
2022/12/25 08:53:16;;;;;;;21.63;19.73;;;5.90;99.90;;;;;;5081269;28;20269;-51
2022/12/25 08:55:42;;;;;;;23.05;20.95;;;5.70;99.90;;;;;;5100038;28;20263;-48
2022/12/25 08:58:08;;;;;;;23.25;21.13;;;5.50;99.90;;;;;;5099669;28;20800;-51
2022/12/25 09:00:34;;;;;;;21.00;19.00;;;5.60;99.90;;;;;;5097836;28;20243;-55
2022/12/25 09:02:59;;;;;;;21.73;19.93;;;6.10;99.90;;;;;;5100670;28;20186;-51
2022/12/25 09:05:28;;;;;;;20.63;18.80;;;6.60;99.90;;;;;;5099957;28;20605;-51
2022/12/25 09:07:54;;;;;;;18.70;17.10;;;7.40;99.90;;;;;;5099542;28;20190;-54
2022/12/25 09:10:19;;;;;;;20.07;18.47;;;7.80;99.90;;;;;;5100177;28;20989;-47
2022/12/25 09:12:45;;;;;;;19.90;18.00;;;8.30;99.90;;;;;;5099977;28;20215;-53
2022/12/25 09:15:11;;;;;;;17.40;16.10;;;8.70;99.90;;;;;;5099920;28;20414;-54
2022/12/25 09:17:37;;;;;;;18.20;16.60;;;9.10;99.90;;;;;;5099648;28;20549;-53
2022/12/25 09:20:03;;;;;;;18.17;16.80;;;9.40;99.90;;;;;;5099670;28;20434;-49
2022/12/25 09:22:29;;;;;;;17.57;16.07;;;9.50;99.90;;;;;;5100910;28;20183;-50
2022/12/25 09:24:54;;;;;;;18.80;17.20;;;9.80;99.90;;;;;;5100515;28;20757;-50
2022/12/25 09:27:20;;;;;;;17.80;16.40;;;10.10;99.90;;;;;;5094557;28;20195;-52
2022/12/25 09:29:45;;;;;;;17.83;16.13;;;10.30;99.90;;;;;;5097846;28;20837;-52
2022/12/25 09:32:11;;;;;;;16.73;15.53;;;10.20;99.90;;;;;;5099983;27;20199;-53
2022/12/25 09:34:37;;;;;;;16.43;15.03;;;10.30;99.90;;;;;;5099282;28;20176;-53
2022/12/25 09:37:02;;;;;;;16.27;14.67;;;10.00;99.90;;;;;;5099741;28;20188;-53
2022/12/25 09:39:28;;;;;;;17.00;15.40;;;9.70;99.90;;;;;;5099996;28;20183;-53
2022/12/25 09:41:56;;;;;;;16.47;15.03;;;9.70;99.90;;;;;;5099327;28;20207;-53
2022/12/25 09:44:27;;;;;;;16.23;15.10;;;10.00;99.90;;;;;;5100792;28;20171;-51
2022/12/25 09:47:05;;;;;;;16.10;14.90;;;10.20;99.90;;;;;;5099333;28;20935;-53
2022/12/25 09:49:45;;;;;;;15.60;14.40;;;10.60;99.90;;;;;;5073856;28;20457;-53
2022/12/25 09:52:49;;;;;;;17.40;16.10;;;10.80;99.90;;;;;;5100374;28;20425;-54
2022/12/25 09:55:18;;;;;;;18.10;16.80;;;10.90;99.90;;;;;;5057949;28;20424;-55
2022/12/25 09:57:48;;;;;;;17.17;16.07;;;11.30;99.90;;;;;;5099561;28;20417;-54
2022/12/25 10:00:22;;;;;;;18.43;16.90;;;11.80;99.90;;;;;;5099920;28;20970;-54
2022/12/25 10:03:17;;;;;;;18.20;16.70;;;12.20;99.90;;;;;;5098485;28;20426;-51
2022/12/25 10:06:21;;;;;;;17.27;16.03;;;11.70;99.90;;;;;;5079971;28;20532;-54
2022/12/25 10:08:55;;;;;;;17.20;16.00;;;11.80;99.90;;;;;;5096492;28;20550;-53
2022/12/25 10:11:21;;;;;;;15.03;14.03;;;12.40;99.90;;;;;;5097527;28;21308;-55
2022/12/25 10:13:49;;;;;;;13.97;12.90;;;12.70;99.90;;;;;;5099928;28;20471;-51
2022/12/25 10:16:30;;;;;;;14.93;14.03;;;13.20;99.90;;;;;;5096419;28;20275;-54
2022/12/25 10:19:21;;;;;;;14.50;13.50;;;13.50;99.90;;;;;;5097751;28;20876;-55
2022/12/25 10:21:51;;;;;;;14.47;13.47;;;13.90;97.80;;;;;;5099942;28;20834;-56
2022/12/25 10:24:41;;;;;;;14.30;13.30;;;14.10;96.40;;;;;;5098873;28;20542;-54
2022/12/25 10:27:16;;;;;;;14.83;13.73;;;14.40;96.50;;;;;;5099877;28;20411;-53
2022/12/25 10:29:45;;;;;;;16.03;14.73;;;14.70;93.90;;;;;;5098960;28;20610;-55
2022/12/25 10:32:10;;;;;;;14.80;13.80;;;14.50;93.30;;;;;;5099762;28;20847;-50
2022/12/25 10:34:39;;;;;;;15.37;14.20;;;14.50;93.00;;;;;;5098279;28;20439;-52
2022/12/25 10:37:05;;;;;;;14.90;13.70;;;14.80;92.60;;;;;;5099196;28;20173;-53
2022/12/25 10:39:30;;;;;;;14.53;13.43;;;14.80;92.60;;;;;;5096921;28;20486;-53
2022/12/25 10:42:06;;;;;;;14.63;13.70;;;14.60;92.50;;;;;;5099019;28;20729;-55
2022/12/25 10:44:33;;;;;;;15.30;14.10;;;14.60;93.80;;;;;;5080133;28;20211;-53
2022/12/25 10:47:00;;;;;;;14.87;13.70;;;15.00;93.40;;;;;;5098592;28;20986;-55
2022/12/25 10:49:35;;;;;;;13.90;12.90;;;15.60;91.10;;;;;;5096433;28;20477;-55
2022/12/25 10:52:02;;;;;;;15.00;13.70;;;15.50;90.10;;;;;;5099349;28;20421;-56
2022/12/25 10:54:32;;;;;;;14.40;13.33;;;15.50;91.20;;;;;;5098513;28;20429;-52
2022/12/25 10:57:03;;;;;;;13.50;12.50;;;15.10;89.10;;;;;;5099074;28;20437;-54
2022/12/25 10:59:33;;;;;;;14.93;13.73;;;15.00;91.20;;;;;;5096124;28;20487;-55
2022/12/25 11:02:25;;;;;;;14.80;13.73;;;14.60;92.20;;;;;;5099016;28;20618;-55
2022/12/25 11:05:01;;;;;;;15.33;14.23;;;14.20;94.30;;;;;;5097082;28;20423;-53
2022/12/25 11:07:27;;;;;;;14.23;13.23;;;14.00;96.30;;;;;;5098991;28;20914;-55
2022/12/25 11:10:02;;;;;;;15.77;14.47;;;14.10;96.70;;;;;;5099143;28;20509;-56
2022/12/25 11:12:35;;;;;;;13.67;12.77;;;14.40;96.20;;;;;;5099166;28;20748;-55
2022/12/25 11:15:06;;;;;;;13.97;12.87;;;14.70;95.50;;;;;;5098069;28;20515;-53
2022/12/25 11:17:34;;;;;;;14.63;13.57;;;14.50;94.40;;;;;;5097920;28;20545;-55
2022/12/25 11:20:00;;;;;;;13.73;12.63;;;14.20;95.40;;;;;;5098841;28;20659;-54
2022/12/25 11:22:27;;;;;;;14.43;13.33;;;14.20;96.20;;;;;;5102739;28;20968;-47
2022/12/25 11:24:53;;;;;;;13.93;12.97;;;14.20;96.10;;;;;;5102241;28;20925;-48
2022/12/25 11:27:29;;;;;;;14.43;13.13;;;14.00;97.30;;;;;;5102227;28;20448;-51
2022/12/25 11:30:00;;;;;;;15.07;13.77;;;13.50;99.90;;;;;;5100521;28;20231;-50
2022/12/25 11:32:54;;;;;;;14.13;13.13;;;13.60;99.90;;;;;;5102034;28;20506;-47
2022/12/25 11:35:24;;;;;;;17.37;15.80;;;13.40;99.90;;;;;;5082845;28;20425;-53
2022/12/25 11:37:51;;;;;;;14.80;13.63;;;13.40;99.90;;;;;;5101762;28;20884;-50
2022/12/25 11:40:22;;;;;;;14.83;13.70;;;13.10;99.90;;;;;;5103366;28;21404;-50
2022/12/25 11:42:51;;;;;;;15.60;14.40;;;12.60;99.90;;;;;;5084478;28;20421;-50
2022/12/25 11:45:26;;;;;;;14.73;13.63;;;12.40;99.90;;;;;;5102118;28;20441;-47
2022/12/25 11:47:57;;;;;;;15.60;14.37;;;11.90;99.90;;;;;;5102480;28;20419;-52
2022/12/25 11:50:47;;;;;;;15.50;14.10;;;11.70;99.90;;;;;;5102939;28;20516;-48
2022/12/25 11:53:23;;;;;;;16.40;15.10;;;11.60;99.90;;;;;;5102488;27;20432;-48
2022/12/25 11:55:56;;;;;;;14.90;13.70;;;11.50;99.90;;;;;;5102211;28;20472;-49
2022/12/25 11:58:28;;;;;;;14.70;13.43;;;11.30;99.90;;;;;;5095930;28;21485;-50
2022/12/25 12:00:56;;;;;;;16.07;14.57;;;11.30;99.90;;;;;;5099910;28;20437;-48
2022/12/25 12:03:31;;;;;;;14.60;13.40;;;11.10;99.90;;;;;;5096783;28;20449;-53
2022/12/25 12:06:02;;;;;;;15.70;14.50;;;11.00;99.90;;;;;;5101572;28;20483;-49
2022/12/25 12:08:29;;;;;;;16.17;14.70;;;10.90;99.90;;;;;;5100744;28;20446;-50
2022/12/25 12:11:17;;;;;;;17.57;14.57;;;10.80;99.90;;;;;;5081717;28;20469;-47
2022/12/25 12:14:08;;;;;;;15.03;13.77;;;10.70;99.90;;;;;;5099809;27;20437;-49
2022/12/25 12:16:34;;;;;;;14.43;13.10;;;10.60;99.90;;;;;;5100560;28;20530;-51
2022/12/25 12:19:10;;;;;;;16.87;15.33;;;10.30;99.90;;;;;;5075647;28;20525;-51
2022/12/25 12:21:37;;;;;;;15.67;14.53;;;10.30;99.90;;;;;;5102272;28;20409;-53
2022/12/25 12:24:11;;;;;;;16.47;14.97;;;10.30;99.90;;;;;;5102378;27;20433;-50
2022/12/25 12:26:41;;;;;;;14.77;13.77;;;10.30;99.90;;;;;;5100720;28;20458;-50
2022/12/25 12:29:38;;;;;;;14.83;13.43;;;10.20;99.90;;;;;;5101345;28;20876;-53
2022/12/25 12:32:18;;;;;;;14.07;13.07;;;10.20;99.90;;;;;;5101656;28;20425;-48
2022/12/25 12:34:50;;;;;;;14.63;13.50;;;10.30;99.90;;;;;;5100729;28;20606;-51
2022/12/25 12:37:23;;;;;;;15.73;14.43;;;10.30;99.90;;;;;;5102031;28;20406;-52
2022/12/25 12:39:52;;;;;;;14.23;13.10;;;10.30;99.90;;;;;;5100967;28;20446;-50
2022/12/25 12:42:24;;;;;;;15.03;13.47;;;10.30;99.90;;;;;;5101139;28;20869;-50
2022/12/25 12:44:56;;;;;;;15.60;14.10;;;10.30;99.90;;;;;;5100946;28;20426;-53
2022/12/25 12:47:29;;;;;;;15.93;14.50;;;10.40;99.90;;;;;;5101597;28;20410;-50
2022/12/25 12:49:59;;;;;;;18.50;16.80;;;10.40;99.90;;;;;;5082741;28;20458;-49
2022/12/25 12:52:31;;;;;;;15.23;14.13;;;10.40;99.90;;;;;;5101618;28;20425;-48
2022/12/25 12:55:05;;;;;;;15.18;13.88;;;10.50;99.90;;;;;;5098150;28;21261;-51
2022/12/25 12:57:38;;;;;;;13.80;12.60;;;10.50;99.90;;;;;;5100659;28;20399;-48
2022/12/25 13:00:05;;;;;;;16.20;14.77;;;10.50;99.90;;;;;;5099749;28;20199;-52
2022/12/25 13:02:53;;;;;;;15.87;14.47;;;10.50;99.90;;;;;;5099662;28;20922;-51
2022/12/25 13:05:34;;;;;;;15.52;14.23;;;10.50;99.90;;;;;;5097601;28;20427;-48
2022/12/25 13:08:18;;;;;;;15.52;14.13;;;10.50;99.90;;;;;;5098299;28;20499;-52
2022/12/25 13:10:49;;;;;;;15.40;14.10;;;10.40;99.90;;;;;;5098204;28;20211;-55
2022/12/25 13:13:22;;;;;;;16.90;15.50;;;10.40;99.90;;;;;;5096104;28;20433;-54
2022/12/25 13:15:49;;;;;;;15.83;14.53;;;10.30;99.90;;;;;;5079147;28;21018;-53
2022/12/25 13:18:15;;;;;;;17.20;15.90;;;10.20;99.90;;;;;;5097317;28;20442;-53
2022/12/25 13:20:44;;;;;;;16.37;15.03;;;10.10;99.90;;;;;;5097503;28;20437;-55
2022/12/25 13:23:35;;;;;;;16.13;14.80;;;10.10;99.90;;;;;;5098644;28;20429;-54
2022/12/25 13:26:03;;;;;;;15.60;14.30;;;10.10;99.90;;;;;;5087792;28;20479;-53
2022/12/25 13:28:31;;;;;;;17.20;15.70;;;10.10;99.90;;;;;;5099079;28;20455;-51
2022/12/25 13:31:21;;;;;;;17.23;15.90;;;10.00;99.90;;;;;;5098215;28;20480;-52
2022/12/25 13:34:03;;;;;;;16.60;15.20;;;9.90;99.90;;;;;;5098860;28;20416;-52
2022/12/25 13:36:35;;;;;;;16.80;15.30;;;9.90;99.90;;;;;;5098050;28;21263;-53
2022/12/25 13:39:01;;;;;;;17.37;15.97;;;9.90;99.90;;;;;;5097482;28;20446;-52
2022/12/25 13:44:27;;;;;;;18.07;16.40;;;9.80;99.90;;;;;;5094309;28;20542;-52
2022/12/25 13:46:53;;;;;;;16.53;15.13;;;9.70;99.90;;;;;;5099144;28;20995;-54
2022/12/25 13:49:22;;;;;;;17.13;15.50;;;9.70;99.90;;;;;;5098456;28;20453;-51
2022/12/25 13:51:48;;;;;;;17.20;15.63;;;9.60;99.90;;;;;;5097854;28;20199;-54
2022/12/25 13:54:16;;;;;;;17.30;16.00;;;9.60;99.90;;;;;;5099286;28;20430;-53
2022/12/25 13:56:54;;;;;;;17.30;15.87;;;9.60;99.90;;;;;;5097488;28;20903;-52
2022/12/25 13:59:22;;;;;;;17.50;16.00;;;9.60;99.90;;;;;;5098369;28;20431;-51
2022/12/25 14:01:50;;;;;;;17.27;15.87;;;9.60;99.90;;;;;;5096820;28;20770;-52
2022/12/25 14:04:21;;;;;;;18.20;16.43;;;9.50;99.90;;;;;;5097416;28;21161;-54
2022/12/25 14:06:48;;;;;;;17.87;16.23;;;9.50;99.90;;;;;;5096414;28;20437;-52
2022/12/25 14:09:14;;;;;;;16.97;15.30;;;9.40;99.90;;;;;;5097822;28;20791;-53
2022/12/25 14:11:44;;;;;;;15.80;14.37;;;9.40;99.90;;;;;;5097618;28;20456;-52
2022/12/25 14:14:17;;;;;;;18.03;16.53;;;9.40;99.90;;;;;;5099074;28;20417;-55
2022/12/25 14:16:48;;;;;;;16.30;14.80;;;9.40;99.90;;;;;;5097844;28;20484;-52
2022/12/25 14:19:30;;;;;;;17.20;15.60;;;9.40;99.90;;;;;;5095641;28;20505;-51
2022/12/25 14:22:06;;;;;;;18.33;16.73;;;9.40;99.90;;;;;;5097740;28;20455;-54
2022/12/25 14:24:33;;;;;;;16.23;14.73;;;9.40;99.90;;;;;;5099733;28;20824;-53
2022/12/25 14:27:05;;;;;;;16.03;14.80;;;9.40;99.90;;;;;;5078676;28;20437;-55
2022/12/25 14:29:40;;;;;;;16.67;15.27;;;9.30;99.90;;;;;;5096874;28;20469;-54
2022/12/25 14:32:14;;;;;;;17.50;16.10;;;9.40;99.90;;;;;;5099791;28;20437;-53